Rechercher aéroport 
image banner adimage banner ad
image banner ad

LI-SS12 - Air Ardara

Situé à Ardara, Italy

ICAO - , IATA -

Données fournies par Airmate  

Information générale

Coordonnées: N40°37'36" E8°51'59"
Élévation : 734 feet MSL.
 
Voir autres Aéroports à Sardinia

Données opérationnelles

Accessible au public
Heure actuelle UTC:
Heure actuelle locale:
Météo à : LIEA - Alghero/Fertilia ( 49 km )
METAR: LIEA 261250Z 30014KT 250V340 9999 FEW035 19/09 Q1008
TAF: TAF LIEA 261100Z 2612/2712 28020KT 9999 SCT030 TEMPO 2612/2618 30020G32KT TEMPO 2700/2706 TSRA
Voir NOTAMs / SUP AIP / TFR affectant cet aéroport [VIEW]
Fréquences de communication: [VIEW]

Pistes:

Identifiant RWYQFULongueur (ft)Largeur (ft)SurfaceLDA (ft)
11147665GRASS
29147665GRASS

Coordonnées de l'aéroport

Adresse: Ardara Italy

Vue satellite de LI-SS12